createdAt,value
2018-08-16T00:00:48.519Z,6.00
2018-08-16T00:03:18.104Z,6.87
2018-08-16T00:05:47.692Z,5.63
2018-08-16T00:08:17.213Z,6.03
2018-08-16T00:10:46.892Z,5.57
2018-08-16T00:13:16.511Z,5.87
2018-08-16T00:15:46.052Z,5.80
2018-08-16T00:18:15.595Z,6.23
2018-08-16T00:20:45.225Z,5.77
2018-08-16T00:23:14.872Z,5.83
2018-08-16T00:25:44.397Z,6.20
2018-08-16T00:28:13.960Z,5.33
2018-08-16T00:30:43.491Z,5.63
2018-08-16T00:33:13.013Z,5.57
2018-08-16T00:35:42.608Z,5.50
2018-08-16T00:38:12.188Z,5.53
2018-08-16T00:40:41.768Z,5.63
2018-08-16T00:43:11.423Z,4.97
2018-08-16T00:45:40.960Z,5.33
2018-08-16T00:48:10.494Z,5.97
2018-08-16T00:50:40.027Z,5.53
2018-08-16T00:53:09.620Z,4.97
2018-08-16T00:55:39.173Z,5.33
2018-08-16T00:58:08.695Z,5.10
2018-08-16T01:00:38.291Z,5.80
2018-08-16T01:03:07.844Z,5.33
2018-08-16T01:05:37.411Z,6.03
2018-08-16T01:08:06.931Z,5.20
2018-08-16T01:10:36.608Z,6.13
2018-08-16T01:13:06.296Z,5.60
2018-08-16T01:15:35.927Z,6.00
2018-08-16T01:18:05.568Z,5.70
2018-08-16T01:20:35.212Z,5.97
2018-08-16T01:23:04.892Z,6.37
2018-08-16T01:25:34.588Z,6.20
2018-08-16T01:28:04.239Z,6.50
2018-08-16T01:30:33.794Z,5.77
2018-08-16T01:33:03.291Z,5.87
2018-08-16T01:35:32.808Z,5.57
2018-08-16T01:38:02.316Z,5.90
2018-08-16T01:40:31.924Z,5.20
2018-08-16T01:43:01.480Z,5.70
2018-08-16T01:45:31.035Z,5.50
2018-08-16T01:48:00.552Z,6.00
2018-08-16T01:50:30.172Z,5.57
2018-08-16T01:52:59.751Z,5.47
2018-08-16T01:55:29.337Z,5.80
2018-08-16T01:57:58.879Z,5.50
2018-08-16T02:00:28.443Z,6.10
2018-08-16T02:02:57.967Z,6.00
2018-08-16T02:05:27.599Z,6.27
2018-08-16T02:07:57.146Z,5.53
2018-08-16T02:10:26.769Z,5.83
2018-08-16T02:12:56.274Z,5.83
2018-08-16T02:15:25.851Z,6.10
2018-08-16T02:17:55.447Z,5.70
2018-08-16T02:20:25.099Z,6.07
2018-08-16T02:22:54.626Z,5.90
2018-08-16T02:25:24.128Z,6.50
2018-08-16T02:27:53.683Z,6.73
2018-08-16T02:30:23.233Z,6.60
2018-08-16T02:32:52.838Z,6.50
2018-08-16T02:35:22.456Z,6.53
2018-08-16T02:37:51.979Z,7.43
2018-08-16T02:40:21.619Z,6.67
2018-08-16T02:42:51.188Z,6.40
2018-08-16T02:45:20.738Z,6.63
2018-08-16T02:47:50.364Z,6.37
2018-08-16T02:50:19.914Z,6.47
2018-08-16T02:52:49.545Z,6.73
2018-08-16T02:55:19.080Z,7.50
2018-08-16T02:57:48.647Z,6.70
2018-08-16T03:00:18.136Z,6.40
2018-08-16T03:02:47.682Z,6.47
2018-08-16T03:05:17.178Z,6.47
2018-08-16T03:07:46.703Z,6.40
2018-08-16T03:10:16.224Z,6.40
2018-08-16T03:12:45.922Z,7.33
2018-08-16T03:15:15.428Z,6.93
2018-08-16T03:17:45.031Z,7.20
2018-08-16T03:20:14.585Z,7.03
2018-08-16T03:22:44.210Z,7.53
2018-08-16T03:25:13.719Z,6.47
2018-08-16T03:27:43.312Z,6.90
2018-08-16T03:30:12.825Z,6.97
2018-08-16T03:32:42.379Z,6.43
2018-08-16T03:35:11.956Z,7.07
2018-08-16T03:37:41.448Z,6.20
2018-08-16T03:40:10.971Z,7.23
2018-08-16T03:42:40.932Z,8.17
2018-08-16T03:45:10.584Z,7.53
2018-08-16T03:47:40.227Z,8.00
2018-08-16T03:50:09.892Z,8.90
2018-08-16T03:52:39.451Z,8.53
2018-08-16T03:55:09.109Z,8.57
2018-08-16T03:57:38.655Z,8.20
2018-08-16T04:00:08.664Z,8.20
2018-08-16T04:02:38.294Z,7.63
2018-08-16T04:05:08.287Z,7.57
2018-08-16T04:07:37.856Z,7.70
2018-08-16T04:10:07.431Z,8.80
2018-08-16T04:12:37.027Z,9.57
2018-08-16T04:15:06.609Z,8.33
2018-08-16T04:17:37.044Z,9.20
2018-08-16T04:20:07.390Z,9.07
2018-08-16T04:22:36.923Z,7.80
2018-08-16T04:25:06.527Z,8.37
2018-08-16T04:27:36.039Z,7.80
2018-08-16T04:30:06.451Z,7.57
2018-08-16T04:32:35.991Z,8.40
2018-08-16T04:35:05.943Z,9.50
2018-08-16T04:37:35.561Z,8.70
2018-08-16T04:40:05.481Z,8.37
2018-08-16T04:42:34.987Z,8.70
2018-08-16T04:45:05.800Z,10.30
2018-08-16T04:47:35.375Z,9.93
2018-08-16T04:50:05.660Z,10.43
2018-08-16T04:52:35.210Z,9.13
2018-08-16T04:55:05.540Z,9.80
2018-08-16T04:57:35.399Z,7.73
2018-08-16T05:00:05.398Z,9.83
2018-08-16T05:02:34.954Z,9.30
2018-08-16T05:05:04.847Z,8.87
2018-08-16T05:07:34.384Z,9.97
2018-08-16T05:10:04.140Z,11.20
2018-08-16T05:12:33.754Z,9.20
2018-08-16T05:15:03.452Z,8.87
2018-08-16T05:17:33.142Z,8.77
2018-08-16T05:20:02.676Z,8.97
2018-08-16T05:22:32.270Z,9.10
2018-08-16T05:25:01.855Z,8.70
2018-08-16T05:27:31.387Z,8.00
2018-08-16T05:30:00.996Z,8.47
2018-08-16T05:32:30.542Z,8.77
2018-08-16T05:35:00.214Z,8.87
2018-08-16T05:37:29.752Z,9.83
2018-08-16T05:39:59.384Z,7.43
2018-08-16T05:42:28.927Z,8.03
2018-08-16T05:44:58.568Z,10.87
2018-08-16T05:47:28.280Z,8.30
2018-08-16T05:49:57.907Z,8.50
2018-08-16T05:52:27.456Z,8.00
2018-08-16T05:54:57.161Z,8.67
2018-08-16T05:57:26.774Z,12.17
2018-08-16T05:59:56.413Z,7.83
2018-08-16T06:02:26.207Z,7.10
2018-08-16T06:04:55.766Z,8.40
2018-08-16T06:07:25.368Z,7.43
2018-08-16T06:09:54.988Z,7.47
2018-08-16T06:12:24.630Z,8.70
2018-08-16T06:14:54.147Z,7.57
2018-08-16T06:17:23.691Z,8.27
2018-08-16T06:19:53.308Z,8.13
2018-08-16T06:22:22.904Z,7.57
2018-08-16T06:24:52.504Z,11.40
2018-08-16T06:27:22.107Z,7.17
2018-08-16T06:29:51.780Z,7.50
2018-08-16T06:32:21.423Z,7.50
2018-08-16T06:34:50.964Z,6.60
2018-08-16T06:37:20.603Z,7.10
2018-08-16T06:39:50.346Z,6.73
2018-08-16T06:42:20.043Z,7.87
2018-08-16T06:44:49.608Z,5.80
2018-08-16T06:47:19.202Z,5.80
2018-08-16T06:49:48.800Z,6.17
2018-08-16T06:52:18.432Z,6.40
2018-08-16T06:54:48.014Z,6.77
2018-08-16T06:57:17.573Z,7.07
2018-08-16T06:59:47.431Z,6.43
2018-08-16T07:02:16.987Z,7.13
2018-08-16T07:04:46.713Z,5.57
2018-08-16T07:07:16.505Z,7.53
2018-08-16T07:09:46.227Z,6.70
2018-08-16T07:12:15.977Z,6.43
2018-08-16T07:14:45.592Z,6.10
2018-08-16T07:17:15.248Z,5.83
2018-08-16T07:19:44.835Z,5.97
2018-08-16T07:22:14.348Z,5.03
2018-08-16T07:24:44.027Z,5.27
2018-08-16T07:27:13.702Z,5.93
2018-08-16T07:29:43.287Z,5.73
2018-08-16T07:32:12.876Z,4.83
2018-08-16T07:34:42.452Z,5.27
2018-08-16T07:37:12.103Z,5.13
2018-08-16T07:39:41.620Z,5.13
2018-08-16T07:42:11.248Z,5.30
2018-08-16T07:44:40.831Z,5.43
2018-08-16T07:47:10.419Z,5.70
2018-08-16T07:49:40.073Z,5.60
2018-08-16T07:52:09.740Z,5.70
2018-08-16T07:54:39.370Z,5.97
2018-08-16T07:57:09.019Z,6.13
2018-08-16T07:59:38.676Z,6.23
2018-08-16T08:02:08.256Z,4.97
2018-08-16T08:04:37.810Z,4.77
2018-08-16T08:07:07.494Z,5.90
2018-08-16T08:09:37.308Z,5.23
2018-08-16T08:12:06.943Z,5.00
2018-08-16T08:14:36.519Z,6.07
2018-08-16T08:17:06.199Z,5.00
2018-08-16T08:19:35.872Z,5.27
2018-08-16T08:22:05.457Z,4.87
2018-08-16T08:24:35.148Z,4.87
2018-08-16T08:27:04.844Z,4.50
2018-08-16T08:29:34.405Z,4.87
2018-08-16T08:32:04.105Z,4.93
2018-08-16T08:34:33.671Z,5.07
2018-08-16T08:37:14.045Z,6.47
2018-08-16T08:39:43.872Z,5.30
2018-08-16T08:42:13.487Z,4.67
2018-08-16T08:44:43.065Z,5.30
2018-08-16T08:47:12.671Z,4.60
2018-08-16T08:49:42.307Z,4.90
2018-08-16T08:52:11.879Z,5.73
2018-08-16T08:54:55.456Z,5.63
2018-08-16T08:57:36.487Z,5.27
2018-08-16T09:00:07.636Z,4.87
2018-08-16T09:02:37.299Z,4.80
2018-08-16T09:05:07.415Z,4.57
2018-08-16T09:07:37.050Z,4.27
2018-08-16T09:11:18.082Z,5.67
2018-08-16T09:14:05.876Z,5.93
2018-08-16T09:16:38.547Z,5.50
2018-08-16T09:19:09.000Z,4.40
2018-08-16T09:21:38.909Z,4.50
2018-08-16T09:24:08.634Z,7.30
2018-08-16T09:26:39.253Z,5.20
2018-08-16T09:29:19.414Z,4.60
2018-08-16T09:31:59.980Z,3.77
2018-08-16T09:34:29.651Z,4.20
2018-08-16T09:36:59.223Z,4.23
2018-08-16T09:39:28.882Z,4.50
2018-08-16T09:41:58.558Z,4.03
2018-08-16T09:44:28.077Z,3.73
2018-08-16T09:47:12.236Z,3.63
2018-08-16T09:49:47.731Z,3.57
2018-08-16T09:52:17.688Z,3.23
2018-08-16T09:54:47.475Z,3.70
2018-08-16T09:57:17.592Z,3.83
2018-08-16T09:59:47.472Z,4.03
2018-08-16T10:02:18.513Z,4.23
2018-08-16T10:04:47.921Z,3.73
2018-08-16T10:07:17.519Z,3.33
2018-08-16T10:09:47.112Z,3.73
2018-08-16T10:12:16.676Z,4.00
2018-08-16T10:14:46.223Z,4.12
2018-08-16T10:17:15.794Z,5.83
2018-08-16T10:19:45.395Z,3.75
2018-08-16T10:22:15.039Z,3.60
2018-08-16T10:24:44.604Z,3.62
2018-08-16T10:27:14.220Z,4.13
2018-08-16T10:29:43.929Z,3.65
2018-08-16T10:32:13.479Z,3.65
2018-08-16T10:34:43.024Z,3.30
2018-08-16T10:37:12.644Z,3.17
2018-08-16T10:39:42.177Z,3.70
2018-08-16T10:42:11.747Z,3.45
2018-08-16T10:44:42.097Z,3.70
2018-08-16T10:47:11.724Z,4.20
2018-08-16T10:49:41.250Z,3.45
2018-08-16T10:52:10.806Z,3.30
2018-08-16T10:54:40.466Z,3.55
2018-08-16T10:57:10.116Z,5.97
2018-08-16T10:59:39.757Z,3.60
2018-08-16T11:02:09.407Z,3.27
2018-08-16T11:04:39.016Z,3.47
2018-08-16T11:07:08.669Z,3.90
2018-08-16T11:09:38.159Z,3.65
2018-08-16T11:12:07.808Z,3.40
2018-08-16T11:14:37.396Z,3.50
2018-08-16T11:17:07.248Z,4.30
2018-08-16T11:19:36.920Z,3.65
2018-08-16T11:22:06.935Z,4.22
2018-08-16T11:24:36.494Z,4.17
2018-08-16T11:27:06.305Z,3.92
2018-08-16T11:29:35.883Z,4.40
2018-08-16T11:32:05.564Z,3.50
2018-08-16T11:34:35.091Z,3.80
2018-08-16T11:37:04.650Z,3.98
2018-08-16T11:39:34.151Z,3.62
2018-08-16T11:42:03.904Z,4.08
2018-08-16T11:44:33.524Z,3.67
2018-08-16T11:47:03.059Z,4.00
2018-08-16T11:49:32.720Z,3.62
2018-08-16T11:52:02.276Z,3.75
2018-08-16T11:54:31.912Z,3.80
2018-08-16T11:57:01.524Z,4.17
2018-08-16T11:59:31.364Z,3.98
2018-08-16T12:02:00.950Z,3.90
2018-08-16T12:04:30.620Z,3.90
2018-08-16T12:07:00.163Z,4.55
2018-08-16T12:09:29.690Z,4.25
2018-08-16T12:11:59.276Z,3.80
2018-08-16T12:14:28.802Z,3.70
2018-08-16T12:16:58.377Z,3.65
2018-08-16T12:19:27.948Z,3.92
2018-08-16T12:21:57.899Z,4.65
2018-08-16T12:24:27.545Z,4.33
2018-08-16T12:26:57.115Z,4.58
2018-08-16T12:29:26.775Z,3.83
2018-08-16T12:31:56.428Z,5.25
2018-08-16T12:34:26.096Z,4.12
2018-08-16T12:36:55.762Z,4.12
2018-08-16T12:39:25.324Z,4.53
2018-08-16T12:41:54.971Z,4.25
2018-08-16T12:44:24.621Z,4.10
2018-08-16T12:46:54.120Z,4.12
2018-08-16T12:49:23.738Z,4.42
2018-08-16T12:51:53.308Z,5.22
2018-08-16T12:54:22.896Z,4.28
2018-08-16T12:56:52.441Z,14.40
2018-08-16T12:59:22.056Z,5.75
2018-08-16T13:01:51.649Z,4.47
2018-08-16T13:04:21.183Z,4.33
2018-08-16T13:06:50.783Z,3.95
2018-08-16T13:09:20.372Z,3.80
2018-08-16T13:11:49.921Z,3.80
2018-08-16T13:14:19.589Z,4.05
2018-08-16T13:16:49.180Z,4.33
2018-08-16T13:19:18.881Z,3.95
2018-08-16T13:21:48.476Z,4.30
2018-08-16T13:24:18.019Z,4.30
2018-08-16T13:26:47.571Z,4.15
2018-08-16T13:29:17.099Z,3.67
2018-08-16T13:31:46.660Z,3.87
2018-08-16T13:34:16.304Z,3.60
2018-08-16T13:36:45.888Z,3.85
2018-08-16T13:39:15.471Z,3.90
2018-08-16T13:41:45.074Z,4.05
2018-08-16T13:44:14.581Z,3.92
2018-08-16T13:46:44.195Z,4.05
2018-08-16T13:49:13.772Z,4.65
2018-08-16T13:51:43.331Z,3.83
2018-08-16T13:54:12.882Z,4.10
2018-08-16T13:56:42.453Z,3.45
2018-08-16T13:59:12.895Z,4.08
2018-08-16T14:01:42.547Z,3.92
2018-08-16T14:04:12.048Z,3.90
2018-08-16T14:06:41.705Z,4.78
2018-08-16T14:09:12.147Z,3.67
2018-08-16T14:11:41.736Z,3.83
2018-08-16T14:14:11.312Z,4.78
2018-08-16T14:16:40.816Z,4.33
2018-08-16T14:19:10.399Z,3.98
2018-08-16T14:21:40.210Z,3.92
2018-08-16T14:24:09.848Z,4.05
2018-08-16T14:26:39.400Z,4.30
2018-08-16T14:29:08.968Z,4.10
2018-08-16T14:31:40.136Z,4.03
2018-08-16T14:34:09.716Z,4.00
2018-08-16T14:36:39.371Z,4.10
2018-08-16T14:39:10.688Z,4.10
2018-08-16T14:41:40.339Z,4.12
2018-08-16T14:44:09.933Z,4.50
2018-08-16T14:46:39.540Z,4.53
2018-08-16T14:49:09.064Z,4.50
2018-08-16T14:51:38.668Z,4.00
2018-08-16T14:54:08.744Z,4.65
2018-08-16T14:56:38.360Z,4.15
2018-08-16T14:59:07.906Z,4.58
2018-08-16T15:01:37.532Z,5.15
2018-08-16T15:04:07.075Z,4.15
2018-08-16T15:06:36.623Z,4.22
2018-08-16T15:09:10.153Z,4.33
2018-08-16T15:11:39.896Z,4.78
2018-08-16T15:14:09.475Z,4.20
2018-08-16T15:16:39.080Z,4.95
2018-08-16T15:19:08.785Z,5.10
2018-08-16T15:21:38.332Z,5.60
2018-08-16T15:24:07.867Z,4.87
2018-08-16T15:26:37.451Z,5.57
2018-08-16T15:29:07.176Z,4.57
2018-08-16T15:31:36.738Z,5.10
2018-08-16T15:34:06.327Z,5.63
2018-08-16T15:36:35.934Z,5.57
2018-08-16T15:39:07.522Z,6.17
2018-08-16T15:41:37.230Z,6.10
2018-08-16T15:44:07.003Z,5.67
2018-08-16T15:46:36.552Z,5.40
2018-08-16T15:49:06.139Z,5.57
2018-08-16T15:51:35.695Z,5.80
2018-08-16T15:54:05.269Z,5.10
2018-08-16T15:56:34.855Z,4.67
2018-08-16T15:59:04.520Z,5.03
2018-08-16T16:01:34.096Z,5.10
2018-08-16T16:04:03.616Z,4.73
2018-08-16T16:06:33.231Z,4.80
2018-08-16T16:09:02.874Z,4.97
2018-08-16T16:11:32.450Z,5.00
2018-08-16T16:14:02.057Z,5.27
2018-08-16T16:16:31.571Z,5.30
2018-08-16T16:19:01.107Z,4.57
2018-08-16T16:21:30.737Z,4.50
2018-08-16T16:24:00.380Z,4.30
2018-08-16T16:26:29.996Z,4.63
2018-08-16T16:28:59.567Z,4.83
2018-08-16T16:31:29.127Z,5.00
2018-08-16T16:33:58.728Z,4.70
2018-08-16T16:36:28.271Z,4.73
2018-08-16T16:38:57.896Z,4.30
2018-08-16T16:41:27.407Z,4.60
2018-08-16T16:43:57.100Z,4.60
2018-08-16T16:46:26.603Z,4.53
2018-08-16T16:48:56.222Z,4.70
2018-08-16T16:51:25.765Z,5.00
2018-08-16T16:53:55.379Z,5.63
2018-08-16T16:56:24.948Z,6.70
2018-08-16T16:58:54.569Z,6.63
2018-08-16T17:01:24.183Z,6.53
2018-08-16T17:03:53.767Z,7.17
2018-08-16T17:06:23.383Z,6.70
2018-08-16T17:08:52.992Z,6.23
2018-08-16T17:11:22.602Z,6.90
2018-08-16T17:13:52.160Z,7.17
2018-08-16T17:16:21.729Z,6.60
2018-08-16T17:18:51.309Z,5.53
2018-08-16T17:21:20.899Z,7.10
2018-08-16T17:23:50.472Z,6.80
2018-08-16T17:26:20.064Z,7.00
2018-08-16T17:28:49.609Z,7.97
2018-08-16T17:31:19.110Z,6.20
2018-08-16T17:33:48.712Z,6.57
2018-08-16T17:36:18.268Z,6.80
2018-08-16T17:38:47.836Z,6.27
2018-08-16T17:41:17.379Z,6.07
2018-08-16T17:43:46.959Z,7.30
2018-08-16T17:46:16.535Z,6.13
2018-08-16T17:48:46.187Z,6.80
2018-08-16T17:51:15.735Z,6.90
2018-08-16T17:53:45.271Z,7.50
2018-08-16T17:56:14.786Z,6.60
2018-08-16T17:58:44.444Z,7.27
2018-08-16T18:01:14.043Z,6.53
2018-08-16T18:03:44.094Z,6.00
2018-08-16T18:06:13.755Z,6.97
2018-08-16T18:08:43.698Z,6.47
2018-08-16T18:11:13.674Z,6.93
2018-08-16T18:13:43.231Z,7.33
2018-08-16T18:16:12.796Z,6.70
2018-08-16T18:18:42.367Z,6.80
2018-08-16T18:21:12.004Z,6.70
2018-08-16T18:23:41.543Z,6.33
2018-08-16T18:26:11.116Z,6.00
2018-08-16T18:28:40.736Z,7.57
2018-08-16T18:31:10.327Z,7.43
2018-08-16T18:33:39.900Z,5.57
2018-08-16T18:36:09.542Z,5.13
2018-08-16T18:38:39.261Z,5.20
2018-08-16T18:41:08.892Z,5.80
2018-08-16T18:43:38.412Z,5.70
2018-08-16T18:46:08.148Z,5.20
2018-08-16T18:48:37.708Z,5.77
2018-08-16T18:51:07.294Z,6.10
2018-08-16T18:53:36.960Z,5.77
2018-08-16T18:56:06.419Z,5.97
2018-08-16T18:58:35.943Z,5.57
2018-08-16T19:01:05.567Z,5.20
2018-08-16T19:03:35.118Z,5.70
2018-08-16T19:06:05.009Z,5.47
2018-08-16T19:08:34.572Z,5.80
2018-08-16T19:11:04.230Z,5.50
2018-08-16T19:13:33.770Z,5.90
2018-08-16T19:16:03.396Z,5.70
2018-08-16T19:18:33.058Z,5.50
2018-08-16T19:21:02.551Z,5.20
2018-08-16T19:23:32.064Z,6.10
2018-08-16T19:26:01.656Z,5.73
2018-08-16T19:28:31.222Z,5.80
2018-08-16T19:31:01.263Z,5.63
2018-08-16T19:33:31.425Z,5.37
2018-08-16T19:36:01.187Z,5.63
2018-08-16T19:38:30.760Z,5.93
2018-08-16T19:41:00.380Z,5.73
2018-08-16T19:43:29.944Z,6.20
2018-08-16T19:45:59.528Z,5.80
2018-08-16T19:48:29.183Z,6.00
2018-08-16T19:50:58.761Z,6.00
2018-08-16T19:53:28.415Z,6.10
2018-08-16T19:55:58.485Z,5.97
2018-08-16T19:58:27.983Z,6.43
2018-08-16T20:00:57.972Z,5.90
2018-08-16T20:03:27.823Z,5.93
2018-08-16T20:05:57.415Z,5.97
2018-08-16T20:08:26.918Z,5.97
2018-08-16T20:10:56.597Z,6.10
2018-08-16T20:13:26.111Z,6.00
2018-08-16T20:15:55.664Z,6.60
2018-08-16T20:18:25.242Z,6.77
2018-08-16T20:20:54.800Z,6.83
2018-08-16T20:23:24.385Z,6.07
2018-08-16T20:25:53.955Z,6.10
2018-08-16T20:28:23.550Z,7.13
2018-08-16T20:30:53.123Z,6.53
2018-08-16T20:33:22.749Z,5.93
2018-08-16T20:35:52.318Z,5.73
2018-08-16T20:38:21.802Z,6.10
2018-08-16T20:40:51.350Z,5.50
2018-08-16T20:43:20.929Z,6.43
2018-08-16T20:45:50.568Z,7.00
2018-08-16T20:48:20.135Z,6.50
2018-08-16T20:50:49.748Z,6.17
2018-08-16T20:53:19.301Z,5.90
2018-08-16T20:55:48.892Z,6.53
2018-08-16T20:58:18.466Z,6.57
2018-08-16T21:00:48.008Z,7.30
2018-08-16T21:03:17.577Z,7.13
2018-08-16T21:05:47.228Z,8.43
2018-08-16T21:08:16.776Z,8.37
2018-08-16T21:10:46.379Z,8.60
2018-08-16T21:13:15.912Z,8.07
2018-08-16T21:15:45.564Z,9.17
2018-08-16T21:18:15.127Z,8.60
2018-08-16T21:20:44.698Z,9.10
2018-08-16T21:23:14.295Z,8.53
2018-08-16T21:25:43.889Z,8.20
2018-08-16T21:28:13.461Z,9.07
2018-08-16T21:30:42.993Z,8.50
2018-08-16T21:33:12.478Z,8.80
2018-08-16T21:35:42.023Z,9.10
2018-08-16T21:38:11.606Z,7.97
2018-08-16T21:40:41.160Z,7.97
2018-08-16T21:43:10.749Z,7.70
2018-08-16T21:45:40.256Z,7.53
2018-08-16T21:48:09.880Z,7.90
2018-08-16T21:50:39.520Z,7.80
2018-08-16T21:53:09.156Z,7.97
2018-08-16T21:55:38.659Z,7.77
2018-08-16T21:58:08.239Z,8.03
2018-08-16T22:00:52.619Z,7.60
2018-08-16T22:03:23.395Z,8.00
2018-08-16T22:05:56.932Z,7.00
2018-08-16T22:08:35.179Z,8.37
2018-08-16T22:11:04.784Z,8.60
2018-08-16T22:13:34.283Z,8.83
2018-08-16T22:16:04.075Z,8.87
2018-08-16T22:18:33.727Z,8.57
2018-08-16T22:21:03.420Z,8.60
2018-08-16T22:23:33.048Z,9.33
2018-08-16T22:26:02.773Z,8.40
2018-08-16T22:28:32.266Z,9.17
2018-08-16T22:31:02.209Z,9.27
2018-08-16T22:33:31.992Z,8.87
2018-08-16T22:36:01.540Z,8.43
2018-08-16T22:38:31.063Z,8.67
2018-08-16T22:41:00.719Z,9.27
2018-08-16T22:43:30.244Z,9.80
2018-08-16T22:45:59.827Z,9.53
2018-08-16T22:48:29.449Z,9.50
2018-08-16T22:50:59.005Z,9.60
2018-08-16T22:53:28.592Z,9.57
2018-08-16T22:55:58.292Z,9.57
2018-08-16T22:58:27.823Z,8.40
2018-08-16T23:00:57.439Z,8.53
2018-08-16T23:03:26.944Z,7.97
2018-08-16T23:05:56.579Z,8.73
2018-08-16T23:08:26.542Z,8.10
2018-08-16T23:10:56.068Z,8.50
2018-08-16T23:13:25.599Z,8.50
2018-08-16T23:15:55.188Z,8.43
2018-08-16T23:18:24.746Z,8.53
2018-08-16T23:20:54.295Z,8.47
2018-08-16T23:23:23.807Z,8.87
2018-08-16T23:25:53.403Z,8.93
2018-08-16T23:28:22.938Z,8.97
2018-08-16T23:30:52.475Z,8.50
2018-08-16T23:33:22.032Z,8.37
2018-08-16T23:35:51.563Z,8.17
2018-08-16T23:38:21.244Z,8.27
2018-08-16T23:40:50.760Z,9.17
2018-08-16T23:43:20.319Z,9.30
2018-08-16T23:45:49.823Z,10.10
2018-08-16T23:48:28.217Z,10.70
2018-08-16T23:50:58.308Z,9.97
2018-08-16T23:53:28.260Z,10.07
2018-08-16T23:55:57.851Z,10.67
2018-08-16T23:58:27.414Z,10.37
